createdAt,value
2023-03-29T00:04:12.042Z,9.10
2023-03-29T00:14:15.400Z,9.10
2023-03-29T00:24:17.358Z,9.20
2023-03-29T00:34:21.258Z,9.30
2023-03-29T00:44:58.816Z,9.30
2023-03-29T00:55:06.267Z,9.30
2023-03-29T01:05:13.182Z,9.20
2023-03-29T01:15:19.837Z,9.30
2023-03-29T01:25:30.491Z,9.30
2023-03-29T01:35:40.091Z,9.30
2023-03-29T01:45:46.763Z,9.40
2023-03-29T01:55:53.467Z,9.40
2023-03-29T02:05:57.128Z,9.50
2023-03-29T02:16:00.580Z,9.50
2023-03-29T02:26:03.634Z,9.50
2023-03-29T02:36:12.526Z,9.50
2023-03-29T02:46:16.681Z,9.50
2023-03-29T02:56:20.865Z,9.50
2023-03-29T03:06:22.843Z,9.50
2023-03-29T03:16:26.352Z,9.50
2023-03-29T03:26:28.375Z,9.50
2023-03-29T03:36:31.869Z,9.70
2023-03-29T03:46:33.818Z,9.70
2023-03-29T03:56:37.222Z,9.80
2023-03-29T04:06:40.664Z,9.80
2023-03-29T04:16:45.819Z,9.90
2023-03-29T04:26:50.158Z,9.90
2023-03-29T04:36:54.502Z,9.80
2023-03-29T04:46:56.440Z,9.70
2023-03-29T05:08:03.685Z,9.50
2023-03-29T05:18:06.277Z,9.40
2023-03-29T05:28:24.608Z,9.40
2023-03-29T05:38:31.495Z,9.30
2023-03-29T05:48:35.080Z,9.30
2023-03-29T05:58:37.038Z,9.20
2023-03-29T06:08:44.635Z,9.30
2023-03-29T06:19:03.100Z,9.50
2023-03-29T06:29:06.399Z,9.70
2023-03-29T06:39:11.082Z,9.90
2023-03-29T06:49:14.510Z,10.30
2023-03-29T06:59:16.480Z,10.50
2023-03-29T07:09:19.800Z,10.60
2023-03-29T07:19:22.220Z,10.60
2023-03-29T07:29:25.575Z,10.70
2023-03-29T07:39:27.760Z,10.60
2023-03-29T07:49:31.110Z,10.60
2023-03-29T07:59:33.076Z,10.60
2023-03-29T08:09:36.421Z,10.80
2023-03-29T08:19:38.362Z,11.20
2023-03-29T08:29:41.749Z,11.40
2023-03-29T08:39:43.677Z,11.60
2023-03-29T08:49:50.672Z,11.50
2023-03-29T08:59:55.530Z,11.20
2023-03-29T09:09:58.965Z,11.20
2023-03-29T09:20:10.981Z,11.20
2023-03-29T09:30:18.056Z,11.40
2023-03-29T09:40:24.083Z,11.60
2023-03-29T09:50:34.162Z,11.80
2023-03-29T10:00:36.380Z,12.00
2023-03-29T10:10:39.776Z,12.20
2023-03-29T10:20:41.749Z,12.30
2023-03-29T10:30:51.952Z,12.40
2023-03-29T10:40:56.026Z,12.60
2023-03-29T10:51:02.075Z,12.40
2023-03-29T11:01:05.626Z,12.40
2023-03-29T11:11:33.847Z,12.50
2023-03-29T11:21:41.971Z,12.30
2023-03-29T11:31:58.221Z,12.30
2023-03-29T11:42:07.876Z,12.50
2023-03-29T11:52:18.133Z,12.90
2023-03-29T12:13:24.588Z,13.30
2023-03-29T12:23:30.504Z,13.30
2023-03-29T12:34:01.553Z,13.60
2023-03-29T12:44:04.690Z,14.40
2023-03-29T12:54:14.294Z,14.50
2023-03-29T13:04:19.278Z,14.00
2023-03-29T13:14:27.792Z,13.90
2023-03-29T13:24:58.374Z,13.90
2023-03-29T13:35:09.507Z,14.30
2023-03-29T13:45:15.675Z,14.40
2023-03-29T13:55:22.695Z,14.30
2023-03-29T14:05:28.936Z,14.60
2023-03-29T14:15:43.137Z,14.90
2023-03-29T14:25:45.058Z,15.50
2023-03-29T14:35:48.518Z,15.60
2023-03-29T14:45:50.882Z,15.80
2023-03-29T14:55:55.246Z,15.80
2023-03-29T15:05:59.695Z,15.90
2023-03-29T15:16:04.581Z,15.80
2023-03-29T15:26:13.783Z,15.70
2023-03-29T15:36:17.173Z,15.70
2023-03-29T15:46:19.308Z,15.90
2023-03-29T15:56:22.937Z,15.80
2023-03-29T16:06:24.902Z,15.60
2023-03-29T16:16:28.284Z,15.30
2023-03-29T16:26:30.311Z,15.20
2023-03-29T16:36:33.593Z,15.10
2023-03-29T16:46:36.760Z,15.10
2023-03-29T16:56:40.224Z,15.00
2023-03-29T17:06:42.331Z,14.80
2023-03-29T17:16:45.792Z,14.60
2023-03-29T17:26:47.794Z,14.50
2023-03-29T17:36:51.132Z,14.30
2023-03-29T17:46:53.301Z,14.10
2023-03-29T17:56:56.782Z,14.10
2023-03-29T18:06:58.790Z,13.70
2023-03-29T18:17:02.206Z,13.30
2023-03-29T18:27:04.340Z,13.20
2023-03-29T18:37:07.660Z,13.00
2023-03-29T18:47:09.685Z,12.80
2023-03-29T18:57:13.098Z,12.70
2023-03-29T19:07:15.108Z,12.40
2023-03-29T19:17:18.424Z,12.20
2023-03-29T19:27:20.396Z,12.00
2023-03-29T19:37:23.755Z,11.90
2023-03-29T19:47:25.721Z,11.90
2023-03-29T19:57:29.111Z,11.80
2023-03-29T20:07:31.053Z,11.80
2023-03-29T20:17:34.416Z,11.80
2023-03-29T20:27:36.557Z,11.80
2023-03-29T20:37:39.858Z,11.80
2023-03-29T20:47:41.830Z,11.80
2023-03-29T20:57:45.516Z,11.80
2023-03-29T21:07:47.469Z,11.90
2023-03-29T21:17:50.839Z,12.00
2023-03-29T21:27:52.808Z,12.20
2023-03-29T21:37:56.199Z,12.20
2023-03-29T21:47:58.262Z,12.40
2023-03-29T21:58:01.735Z,12.50
2023-03-29T22:08:03.771Z,12.50
2023-03-29T22:18:07.140Z,12.50
2023-03-29T22:28:09.309Z,12.40
2023-03-29T22:38:12.701Z,12.50
2023-03-29T22:48:14.722Z,12.50
2023-03-29T22:58:18.151Z,12.30
2023-03-29T23:08:20.277Z,12.30
2023-03-29T23:18:24.668Z,12.40
2023-03-29T23:28:27.663Z,12.40
2023-03-29T23:38:31.619Z,12.40
2023-03-29T23:48:34.360Z,12.30
2023-03-29T23:58:38.412Z,12.30
